Terminal Aerodrome Forecast
Issued by NWS

Home | Current Version | Previous Version | Text Only | Print | Product List | Glossary On
Versions: 1 2 3 4 5 6 7 8 9 10 11 12 13 14 15 16 17 18 19 20 21
000
FTUS41 KPHI 170531
TAFPNE
TAF
KPNE 170531Z 1706/1806 22003KT P6SM VCSH OVC035
     FM171100 12004KT P6SM -RA OVC020
     FM171500 12004KT 5SM -RA BR OVC009
     FM172200 14005KT 2SM -DZ BR OVC003=

USA.gov is the U.S. government's official web portal to all federal, state and local government web resources and services.